Time;durP1;ratioP1;P1;durP2;ratioP2;P2;SDS_P1;SDS_P2;PMS_P1;PMS_P2;Temp;Humidity;BMP_temperature;BMP_pressure;BME280_temperature;BME280_humidity;BME280_pressure;Samples;Min_cycle;Max_cycle;Signal;HPM_P1;HPM_P2
2023/06/12 00:00:37;;;;;;;;;;;;;;;15.48;100.00;96953.65;110128;1240;69633;-70
2023/06/12 00:03:28;;;;;;;;;;;;;;;15.48;100.00;96949.92;110081;1242;69172;-70
2023/06/12 00:05:59;;;;;;;;;;;;;;;15.47;100.00;96947.58;110130;1244;59701;-70
2023/06/12 00:08:30;;;;;;;;;;;;;;;15.46;100.00;96944.48;110159;1242;59732;-72
2023/06/12 00:11:01;;;;;;;;;;;;;;;15.46;100.00;96942.45;110167;1242;71225;-72
2023/06/12 00:13:31;;;;;;;;;;;;;;;15.44;100.00;96942.94;109852;1245;68291;-72
2023/06/12 00:16:02;;;;;;;;;;;;;;;15.46;100.00;96943.83;110155;1246;69163;-70
2023/06/12 00:18:32;;;;;;;;;;;;;;;15.46;100.00;96939.29;110140;1245;59745;-71
2023/06/12 00:21:03;;;;;;;;;;;;;;;15.47;100.00;96937.60;110141;1240;59661;-71
2023/06/12 00:23:36;;;;;;;;;;;;;;;15.47;100.00;96934.60;110131;1243;71236;-71
2023/06/12 00:26:07;;;;;;;;;;;;;;;15.46;100.00;96930.82;110143;1244;69154;-69
2023/06/12 00:28:37;;;;;;;;;;;;;;;15.45;100.00;96930.36;110131;1240;69244;-70
2023/06/12 00:31:08;;;;;;;;;;;;;;;15.44;100.00;96930.85;110126;1243;60186;-69
2023/06/12 00:33:41;;;;;;;;;;;;;;;15.43;100.00;96928.63;110129;1244;59905;-70
2023/06/12 00:36:13;;;;;;;;;;;;;;;15.42;100.00;96927.52;110136;1242;71286;-69
2023/06/12 00:38:43;;;;;;;;;;;;;;;15.42;100.00;96924.03;110117;1242;68321;-71
2023/06/12 00:41:13;;;;;;;;;;;;;;;15.41;100.00;96915.35;110155;1243;68580;-72
2023/06/12 00:43:43;;;;;;;;;;;;;;;15.43;100.00;96913.23;110129;1245;59719;-71
2023/06/12 00:46:14;;;;;;;;;;;;;;;15.42;100.00;96907.38;110112;1242;59761;-70
2023/06/12 00:48:43;;;;;;;;;;;;;;;15.41;100.00;96908.17;110161;1241;71367;-71
2023/06/12 00:51:13;;;;;;;;;;;;;;;15.41;100.00;96908.40;110151;1242;68465;-71
2023/06/12 00:53:46;;;;;;;;;;;;;;;15.40;100.00;96903.52;110124;1247;69263;-70
2023/06/12 00:56:18;;;;;;;;;;;;;;;15.40;100.00;96904.45;110135;1247;60165;-72
2023/06/12 00:58:52;;;;;;;;;;;;;;;15.39;100.00;96899.09;110151;1240;59704;-71
2023/06/12 01:01:26;;;;;;;;;;;;;;;15.37;100.00;96898.19;110169;1242;71425;-71
2023/06/12 01:03:57;;;;;;;;;;;;;;;15.36;100.00;96896.71;110211;1242;69095;-71
2023/06/12 01:06:33;;;;;;;;;;;;;;;15.36;100.00;96897.96;110152;1244;68367;-71
2023/06/12 01:09:29;;;;;;;;;;;;;;;15.34;100.00;96894.41;110191;1246;59787;-72
2023/06/12 01:12:01;;;;;;;;;;;;;;;15.35;100.00;96897.20;110198;1245;59682;-71
2023/06/12 01:14:32;;;;;;;;;;;;;;;15.35;100.00;96895.29;110212;1242;71219;-72
2023/06/12 01:17:03;;;;;;;;;;;;;;;15.34;100.00;96895.17;110146;1244;69314;-72
2023/06/12 01:19:35;;;;;;;;;;;;;;;15.34;100.00;96896.89;110198;1240;69752;-71
2023/06/12 01:22:10;;;;;;;;;;;;;;;15.34;100.00;96896.06;110117;1244;59631;-72
2023/06/12 01:24:48;;;;;;;;;;;;;;;15.33;100.00;96894.21;110152;1244;59728;-71
2023/06/12 01:27:19;;;;;;;;;;;;;;;15.33;100.00;96895.66;110178;1240;71088;-72
2023/06/12 01:30:03;;;;;;;;;;;;;;;15.32;100.00;96895.01;110168;1242;69080;-72
2023/06/12 01:32:37;;;;;;;;;;;;;;;15.30;100.00;96899.44;110174;1248;69178;-70
2023/06/12 01:35:13;;;;;;;;;;;;;;;15.27;100.00;96902.14;110135;1242;59747;-70
2023/06/12 01:37:51;;;;;;;;;;;;;;;15.25;100.00;96908.18;110149;1240;59748;-70
2023/06/12 01:40:26;;;;;;;;;;;;;;;15.23;100.00;96907.11;110141;1242;70434;-71
2023/06/12 01:42:58;;;;;;;;;;;;;;;15.22;100.00;96910.17;110117;1245;69241;-71
2023/06/12 01:45:31;;;;;;;;;;;;;;;15.22;100.00;96913.36;110156;1241;68535;-71
2023/06/12 01:48:02;;;;;;;;;;;;;;;15.22;100.00;96913.76;109975;1241;59735;-70
2023/06/12 01:50:36;;;;;;;;;;;;;;;15.21;100.00;96914.18;110134;1244;59683;-71
2023/06/12 01:53:07;;;;;;;;;;;;;;;15.20;100.00;96915.90;110116;1244;71392;-71
2023/06/12 01:55:41;;;;;;;;;;;;;;;15.16;100.00;96917.29;110169;1240;68499;-71
2023/06/12 01:58:13;;;;;;;;;;;;;;;15.12;100.00;96916.83;110116;1246;68472;-71
2023/06/12 02:01:06;;;;;;;;;;;;;;;15.08;100.00;96918.97;110133;1242;59764;-69
2023/06/12 02:03:39;;;;;;;;;;;;;;;15.06;100.00;96917.20;110156;1243;59675;-72
2023/06/12 02:06:18;;;;;;;;;;;;;;;15.06;100.00;96914.82;110162;1244;70622;-71
2023/06/12 02:08:52;;;;;;;;;;;;;;;15.07;100.00;96913.85;110136;1243;69272;-70
2023/06/12 02:11:23;;;;;;;;;;;;;;;15.08;100.00;96912.91;109970;1244;69127;-70
2023/06/12 02:13:55;;;;;;;;;;;;;;;15.08;100.00;96912.48;110144;1240;59705;-71
2023/06/12 02:16:25;;;;;;;;;;;;;;;15.08;100.00;96913.58;110201;1241;59639;-71
2023/06/12 02:18:55;;;;;;;;;;;;;;;15.04;100.00;96911.50;110203;1242;71001;-72
2023/06/12 02:21:26;;;;;;;;;;;;;;;15.01;100.00;96918.73;110168;1244;69198;-71
2023/06/12 02:23:57;;;;;;;;;;;;;;;14.99;100.00;96920.54;110148;1242;68507;-71
2023/06/12 02:26:28;;;;;;;;;;;;;;;14.97;100.00;96924.76;110160;1244;59704;-71
2023/06/12 02:29:07;;;;;;;;;;;;;;;14.96;100.00;96927.70;110114;1240;59762;-71
2023/06/12 02:31:41;;;;;;;;;;;;;;;14.95;100.00;96933.03;109950;1244;70696;-70
2023/06/12 02:34:12;;;;;;;;;;;;;;;14.94;100.00;96932.59;110140;1246;69064;-70
2023/06/12 02:36:46;;;;;;;;;;;;;;;14.92;100.00;96935.63;110122;1244;68339;-70
2023/06/12 02:39:25;;;;;;;;;;;;;;;14.90;100.00;96940.98;110115;1242;59744;-70
2023/06/12 02:42:00;;;;;;;;;;;;;;;14.88;100.00;96942.36;110138;1245;59656;-70
2023/06/12 02:44:32;;;;;;;;;;;;;;;14.88;100.00;96940.98;110136;1245;71217;-71
2023/06/12 02:47:04;;;;;;;;;;;;;;;14.87;100.00;96944.00;110119;1244;69407;-71
2023/06/12 02:49:44;;;;;;;;;;;;;;;14.88;100.00;96944.64;110177;1242;69286;-71
2023/06/12 02:52:26;;;;;;;;;;;;;;;14.87;100.00;96940.17;110182;1242;59697;-71
2023/06/12 02:54:56;;;;;;;;;;;;;;;14.88;100.00;96942.20;110167;1243;59758;-71
2023/06/12 02:57:28;;;;;;;;;;;;;;;14.88;100.00;96940.98;110109;1241;69726;-72
2023/06/12 03:00:01;;;;;;;;;;;;;;;14.87;100.00;96939.98;110156;1242;69132;-71
2023/06/12 03:02:42;;;;;;;;;;;;;;;14.82;100.00;96943.82;110147;1249;68663;-71
2023/06/12 03:05:16;;;;;;;;;;;;;;;14.82;100.00;96943.68;110151;1246;59712;-70
2023/06/12 03:07:51;;;;;;;;;;;;;;;14.82;100.00;96947.17;110148;1249;59651;-71
2023/06/12 03:10:21;;;;;;;;;;;;;;;14.82;100.00;96948.59;110157;1242;70450;-71
2023/06/12 03:12:51;;;;;;;;;;;;;;;14.80;100.00;96948.79;110184;1242;69262;-71
2023/06/12 03:15:22;;;;;;;;;;;;;;;14.79;100.00;96946.40;110159;1242;69285;-70
2023/06/12 03:17:52;;;;;;;;;;;;;;;14.75;100.00;96948.09;110117;1242;59744;-71
2023/06/12 03:20:24;;;;;;;;;;;;;;;14.74;100.00;96942.80;110115;1245;59740;-71
2023/06/12 03:22:55;;;;;;;;;;;;;;;14.72;100.00;96944.91;110163;1245;71434;-71
2023/06/12 03:25:24;;;;;;;;;;;;;;;14.74;100.00;96944.77;109930;1244;69227;-71
2023/06/12 03:27:56;;;;;;;;;;;;;;;14.72;100.00;96944.77;110124;1244;68514;-71
2023/06/12 03:30:26;;;;;;;;;;;;;;;14.71;100.00;96943.69;110018;1247;59792;-71
2023/06/12 03:32:57;;;;;;;;;;;;;;;14.72;100.00;96948.42;110167;1242;59742;-72
2023/06/12 03:35:26;;;;;;;;;;;;;;;14.75;100.00;96946.48;109942;1245;71267;-71
2023/06/12 03:37:56;;;;;;;;;;;;;;;14.76;100.00;96946.83;110155;1245;69078;-72
2023/06/12 03:40:26;;;;;;;;;;;;;;;14.76;100.00;96944.73;110145;1242;67528;-71
2023/06/12 03:42:56;;;;;;;;;;;;;;;14.78;100.00;96948.73;110142;1242;59810;-72
2023/06/12 03:45:26;;;;;;;;;;;;;;;14.80;100.00;96949.77;110148;1245;60090;-71
2023/06/12 03:47:58;;;;;;;;;;;;;;;14.84;100.00;96952.80;109843;1246;70239;-71
2023/06/12 03:50:30;;;;;;;;;;;;;;;14.85;100.00;96950.17;109948;1244;68364;-70
2023/06/12 03:53:00;;;;;;;;;;;;;;;14.88;100.00;96950.60;110133;1243;69407;-71
2023/06/12 03:55:32;;;;;;;;;;;;;;;14.90;100.00;96952.39;110156;1244;59733;-72
2023/06/12 03:58:02;;;;;;;;;;;;;;;14.92;100.00;96956.16;110143;1244;59755;-72
2023/06/12 04:00:32;;;;;;;;;;;;;;;14.97;100.00;96958.52;110176;1252;71357;-72
2023/06/12 04:03:02;;;;;;;;;;;;;;;15.02;100.00;96959.27;110111;1241;68559;-70
2023/06/12 04:05:33;;;;;;;;;;;;;;;15.04;100.00;96963.05;110136;1242;68550;-72
2023/06/12 04:08:03;;;;;;;;;;;;;;;15.07;100.00;96961.38;110185;1243;59756;-71
2023/06/12 04:10:33;;;;;;;;;;;;;;;15.08;100.00;96964.61;109908;1245;59744;-70
2023/06/12 04:13:03;;;;;;;;;;;;;;;15.10;100.00;96964.75;110115;1245;71943;-70
2023/06/12 04:15:33;;;;;;;;;;;;;;;15.12;100.00;96964.34;110162;1242;69177;-70
2023/06/12 04:18:04;;;;;;;;;;;;;;;15.13;100.00;96964.81;110142;1242;69172;-72
2023/06/12 04:20:34;;;;;;;;;;;;;;;15.16;100.00;96961.91;110098;1250;59682;-70
2023/06/12 04:23:04;;;;;;;;;;;;;;;15.19;100.00;96959.60;110126;1241;59677;-71
2023/06/12 04:25:35;;;;;;;;;;;;;;;15.20;100.00;96958.80;109813;1245;70672;-72
2023/06/12 04:28:07;;;;;;;;;;;;;;;15.22;100.00;96958.62;110183;1242;69288;-71
2023/06/12 04:30:36;;;;;;;;;;;;;;;15.23;100.00;96956.58;110179;1242;69098;-70
2023/06/12 04:33:06;;;;;;;;;;;;;;;15.27;100.00;96957.84;110161;1242;59693;-72
2023/06/12 04:35:35;;;;;;;;;;;;;;;15.31;100.00;96957.41;110157;1241;59791;-72
2023/06/12 04:38:05;;;;;;;;;;;;;;;15.35;100.00;96957.23;110192;1245;71209;-71
2023/06/12 04:40:36;;;;;;;;;;;;;;;15.38;100.00;96952.02;110135;1246;69245;-70
2023/06/12 04:43:06;;;;;;;;;;;;;;;15.43;100.00;96954.64;110096;1246;69105;-71
2023/06/12 04:45:36;;;;;;;;;;;;;;;15.48;100.00;96955.52;110091;1245;59683;-71
2023/06/12 04:48:06;;;;;;;;;;;;;;;15.53;100.00;96955.11;110102;1246;59673;-71
2023/06/12 04:50:36;;;;;;;;;;;;;;;15.58;100.00;96958.73;110106;1242;71260;-72
2023/06/12 04:53:06;;;;;;;;;;;;;;;15.63;100.00;96961.28;110318;1241;68514;-72
2023/06/12 04:55:35;;;;;;;;;;;;;;;15.66;100.00;96963.92;110208;1242;69280;-71
2023/06/12 04:58:04;;;;;;;;;;;;;;;15.69;100.00;96963.15;110122;1242;60179;-71
2023/06/12 05:00:34;;;;;;;;;;;;;;;15.71;100.00;96966.92;110147;1242;59667;-71
2023/06/12 05:03:04;;;;;;;;;;;;;;;15.73;100.00;96968.30;110137;1240;72436;-71
2023/06/12 05:05:33;;;;;;;;;;;;;;;15.75;100.00;96966.95;109983;1241;68553;-72
2023/06/12 05:08:02;;;;;;;;;;;;;;;15.73;100.00;96963.42;110186;1242;69281;-72
2023/06/12 05:10:32;;;;;;;;;;;;;;;15.67;100.00;96966.96;110272;1241;59665;-72
2023/06/12 05:13:02;;;;;;;;;;;;;;;15.67;100.00;96967.86;110273;1242;59678;-72
2023/06/12 05:15:31;;;;;;;;;;;;;;;15.62;100.00;96971.35;110231;1242;70835;-73
2023/06/12 05:18:00;;;;;;;;;;;;;;;15.62;100.00;96970.47;110003;1245;69302;-71
2023/06/12 05:20:30;;;;;;;;;;;;;;;15.62;100.00;96974.55;110131;1248;68424;-72
2023/06/12 05:23:00;;;;;;;;;;;;;;;15.55;100.00;96978.00;110238;1242;59696;-70
2023/06/12 05:25:30;;;;;;;;;;;;;;;15.54;100.00;96981.45;110167;1242;59635;-72
2023/06/12 05:28:00;;;;;;;;;;;;;;;15.53;100.00;96981.41;110117;1241;70436;-72
2023/06/12 05:30:30;;;;;;;;;;;;;;;15.48;100.00;96986.77;110162;1241;69097;-71
2023/06/12 05:33:01;;;;;;;;;;;;;;;15.46;100.00;96986.83;110145;1242;69260;-71
2023/06/12 05:35:31;;;;;;;;;;;;;;;15.44;100.00;96984.99;110096;1241;59744;-71
2023/06/12 05:38:00;;;;;;;;;;;;;;;15.38;100.00;96983.98;110117;1244;59715;-72
2023/06/12 05:40:30;;;;;;;;;;;;;;;15.37;100.00;96982.44;110166;1242;71805;-72
2023/06/12 05:42:59;;;;;;;;;;;;;;;15.36;100.00;96982.95;110145;1242;69791;-72
2023/06/12 05:45:29;;;;;;;;;;;;;;;15.37;100.00;96983.13;110278;1242;69977;-71
2023/06/12 05:48:02;;;;;;;;;;;;;;;15.36;100.00;96986.22;110142;1242;59691;-71
2023/06/12 05:50:30;;;;;;;;;;;;;;;15.34;100.00;96991.90;110148;1244;59703;-73
2023/06/12 05:53:00;;;;;;;;;;;;;;;15.34;100.00;96992.24;110185;1241;71727;-71
2023/06/12 05:55:29;;;;;;;;;;;;;;;15.34;100.00;96990.29;110094;1241;68580;-71
2023/06/12 05:57:58;;;;;;;;;;;;;;;15.34;100.00;96988.20;110129;1245;69169;-72
2023/06/12 06:00:27;;;;;;;;;;;;;;;15.35;100.00;96990.56;110187;1241;59691;-72
2023/06/12 06:02:57;;;;;;;;;;;;;;;15.35;100.00;96991.29;110181;1240;59736;-72
2023/06/12 06:05:32;;;;;;;;;;;;;;;15.34;100.00;96994.55;110021;1240;71991;-72
2023/06/12 06:08:12;;;;;;;;;;;;;;;15.26;100.00;96994.73;110193;1242;69670;-73
2023/06/12 06:10:45;;;;;;;;;;;;;;;15.25;100.00;96994.31;110191;1242;69378;-72
2023/06/12 06:13:14;;;;;;;;;;;;;;;15.21;100.00;96998.07;110161;1246;59736;-73
2023/06/12 06:15:45;;;;;;;;;;;;;;;15.16;100.00;96996.83;110222;1242;59605;-72
2023/06/12 06:18:14;;;;;;;;;;;;;;;15.09;100.00;97002.23;110203;1241;70624;-73
2023/06/12 06:20:44;;;;;;;;;;;;;;;15.10;100.00;97003.93;110248;1242;68891;-71
2023/06/12 06:23:12;;;;;;;;;;;;;;;15.11;100.00;97002.79;110150;1242;69254;-72
2023/06/12 06:25:43;;;;;;;;;;;;;;;15.09;100.00;97004.55;110110;1241;59715;-72
2023/06/12 06:28:12;;;;;;;;;;;;;;;15.09;100.00;97004.52;110161;1249;59672;-71
2023/06/12 06:30:41;;;;;;;;;;;;;;;15.10;100.00;97008.11;110186;1240;71206;-71
2023/06/12 06:33:10;;;;;;;;;;;;;;;15.11;100.00;97007.34;110098;1244;68469;-72
2023/06/12 06:35:39;;;;;;;;;;;;;;;15.12;100.00;97009.11;110178;1242;68591;-72
2023/06/12 06:38:07;;;;;;;;;;;;;;;15.11;100.00;97007.00;110118;1245;59698;-72
2023/06/12 06:40:36;;;;;;;;;;;;;;;15.11;100.00;97004.70;110198;1245;59710;-72
2023/06/12 06:43:05;;;;;;;;;;;;;;;15.11;100.00;97005.70;110120;1240;71966;-72
2023/06/12 06:45:58;;;;;;;;;;;;;;;15.10;100.00;97004.73;110186;1242;69131;-72
2023/06/12 06:48:28;;;;;;;;;;;;;;;15.12;100.00;97000.88;109529;1242;803566;-72
2023/06/12 06:50:57;;;;;;;;;;;;;;;15.15;100.00;97005.86;110160;1242;59719;-70
2023/06/12 06:53:26;;;;;;;;;;;;;;;15.18;100.00;97007.88;110175;1242;59690;-71
2023/06/12 06:55:55;;;;;;;;;;;;;;;15.21;100.00;97009.79;110148;1246;71911;-72
2023/06/12 06:58:24;;;;;;;;;;;;;;;15.25;100.00;97002.08;110174;1243;69077;-72
2023/06/12 07:00:53;;;;;;;;;;;;;;;15.27;100.00;97004.34;110187;1242;69210;-72
2023/06/12 07:03:23;;;;;;;;;;;;;;;15.29;100.00;96999.55;110174;1248;59715;-72
2023/06/12 07:05:53;;;;;;;;;;;;;;;15.34;100.00;97000.55;110218;1241;59687;-71
2023/06/12 07:08:22;;;;;;;;;;;;;;;15.37;100.00;96997.74;110171;1243;71956;-72
2023/06/12 07:10:50;;;;;;;;;;;;;;;15.39;100.00;96993.54;110175;1244;70031;-71
2023/06/12 07:13:19;;;;;;;;;;;;;;;15.44;100.00;96998.80;110033;1244;69706;-71
2023/06/12 07:15:52;;;;;;;;;;;;;;;15.51;100.00;97004.02;110144;1242;59693;-73
2023/06/12 07:18:22;;;;;;;;;;;;;;;15.55;100.00;97009.66;109981;1244;59710;-72
2023/06/12 07:20:51;;;;;;;;;;;;;;;15.61;100.00;97011.52;110194;1242;71231;-71
2023/06/12 07:23:20;;;;;;;;;;;;;;;15.68;100.00;97014.33;110189;1242;67749;-72
2023/06/12 07:25:49;;;;;;;;;;;;;;;15.75;100.00;97016.95;110119;1242;69607;-72
2023/06/12 07:28:18;;;;;;;;;;;;;;;15.86;100.00;97018.08;110205;1242;59730;-72
2023/06/12 07:30:47;;;;;;;;;;;;;;;15.93;100.00;97016.45;110080;1245;59735;-72
2023/06/12 07:33:15;;;;;;;;;;;;;;;16.01;100.00;97019.53;110157;1242;71927;-72
2023/06/12 07:35:44;;;;;;;;;;;;;;;16.07;100.00;97015.52;110161;1242;69669;-71
2023/06/12 07:38:13;;;;;;;;;;;;;;;16.18;100.00;97013.65;109957;1244;69354;-71
2023/06/12 07:40:43;;;;;;;;;;;;;;;16.34;100.00;97010.53;110145;1245;59687;-73
2023/06/12 07:43:12;;;;;;;;;;;;;;;16.50;100.00;97018.13;110160;1244;59652;-71
2023/06/12 07:45:41;;;;;;;;;;;;;;;16.63;100.00;97016.64;110119;1241;71636;-71
2023/06/12 07:48:10;;;;;;;;;;;;;;;16.85;100.00;97014.92;110083;1244;69700;-71
2023/06/12 07:50:42;;;;;;;;;;;;;;;17.15;100.00;97023.00;109808;1244;69645;-70
2023/06/12 07:53:11;;;;;;;;;;;;;;;17.45;100.00;97023.70;110079;1244;59752;-71
2023/06/12 07:56:01;;;;;;;;;;;;;;;17.75;100.00;97026.48;110094;1244;59640;-71
2023/06/12 07:58:31;;;;;;;;;;;;;;;18.03;100.00;97028.73;110056;1244;70669;-72
2023/06/12 08:01:04;;;;;;;;;;;;;;;18.23;100.00;97029.02;110100;1244;69830;-74
2023/06/12 08:03:38;;;;;;;;;;;;;;;18.38;100.00;97031.10;110103;1244;69317;-72
2023/06/12 08:06:11;;;;;;;;;;;;;;;18.50;100.00;97031.48;110144;1244;59751;-73
2023/06/12 08:08:45;;;;;;;;;;;;;;;18.58;100.00;97032.92;110149;1242;59745;-72
2023/06/12 08:11:14;;;;;;;;;;;;;;;18.55;100.00;97035.11;110306;1244;70607;-73
2023/06/12 08:13:46;;;;;;;;;;;;;;;18.49;100.00;97034.08;110125;1241;68415;-72
2023/06/12 08:16:16;;;;;;;;;;;;;;;18.59;100.00;97035.63;109916;1244;69091;-73
2023/06/12 08:18:46;;;;;;;;;;;;;;;18.63;100.00;97039.39;110144;1243;59712;-73
2023/06/12 08:21:19;;;;;;;;;;;;;;;18.66;100.00;97036.73;110258;1244;59720;-73
2023/06/12 08:23:47;;;;;;;;;;;;;;;18.74;99.22;97039.81;110148;1244;72209;-73
2023/06/12 08:26:16;;;;;;;;;;;;;;;18.69;100.00;97037.73;110109;1244;69399;-72
2023/06/12 08:28:48;;;;;;;;;;;;;;;18.71;100.00;97036.73;110168;1244;69996;-73
2023/06/12 08:31:19;;;;;;;;;;;;;;;18.78;100.00;97036.31;110159;1244;59721;-72
2023/06/12 08:33:48;;;;;;;;;;;;;;;19.05;99.88;97033.14;110160;1244;59678;-73
2023/06/12 08:36:16;;;;;;;;;;;;;;;19.27;97.32;97033.64;110180;1244;71930;-73
2023/06/12 08:38:45;;;;;;;;;;;;;;;19.50;91.92;97032.36;110204;1242;69292;-74
2023/06/12 08:41:18;;;;;;;;;;;;;;;19.73;88.23;97030.46;110228;1240;69435;-73
2023/06/12 08:43:49;;;;;;;;;;;;;;;19.84;86.85;97033.71;110315;1241;59687;-71
2023/06/12 08:46:21;;;;;;;;;;;;;;;20.07;83.06;97029.23;110011;1244;59751;-74
2023/06/12 08:48:50;;;;;;;;;;;;;;;20.39;85.19;97030.67;110362;1242;70665;-74
2023/06/12 08:51:20;;;;;;;;;;;;;;;20.71;87.58;97032.21;110351;1242;69186;-74
2023/06/12 08:53:49;;;;;;;;;;;;;;;20.83;80.95;97032.16;110298;1242;68318;-73
2023/06/12 08:56:19;;;;;;;;;;;;;;;20.99;80.43;97032.08;110143;1242;59760;-73
2023/06/12 08:58:48;;;;;;;;;;;;;;;21.14;80.33;97033.45;110201;1242;59692;-72
2023/06/12 09:01:17;;;;;;;;;;;;;;;20.99;77.44;97030.23;110176;1240;72316;-75
2023/06/12 09:03:48;;;;;;;;;;;;;;;21.11;78.13;97031.77;110300;1241;69133;-75
2023/06/12 09:06:18;;;;;;;;;;;;;;;21.11;79.40;97032.95;110187;1240;69288;-74
2023/06/12 09:08:47;;;;;;;;;;;;;;;21.19;78.31;97032.04;110321;1242;59729;-75
2023/06/12 09:11:16;;;;;;;;;;;;;;;21.24;79.21;97029.91;110290;1242;59676;-75
2023/06/12 09:13:45;;;;;;;;;;;;;;;21.27;79.26;97025.98;110159;1242;70272;-74
2023/06/12 09:16:14;;;;;;;;;;;;;;;21.29;79.60;97025.18;110273;1241;68483;-74
2023/06/12 09:18:49;;;;;;;;;;;;;;;21.25;79.34;97021.64;110132;1242;69258;-72
2023/06/12 09:21:23;;;;;;;;;;;;;;;21.33;79.44;97025.39;110163;1241;59706;-74
2023/06/12 09:23:53;;;;;;;;;;;;;;;21.54;77.57;97024.83;110318;1243;59633;-72
2023/06/12 09:26:22;;;;;;;;;;;;;;;21.77;75.19;97020.10;109979;1244;71410;-74
2023/06/12 09:28:52;;;;;;;;;;;;;;;22.04;76.60;97018.13;110330;1242;69293;-74
2023/06/12 09:31:21;;;;;;;;;;;;;;;22.17;73.24;97019.80;110388;1240;68518;-73
2023/06/12 09:33:50;;;;;;;;;;;;;;;22.59;71.50;97015.77;110302;1242;59675;-74
2023/06/12 09:36:20;;;;;;;;;;;;;;;23.36;70.46;97011.75;110302;1240;59739;-74
2023/06/12 09:38:50;;;;;;;;;;;;;;;23.56;66.76;97011.23;110271;1242;71400;-74
2023/06/12 09:41:23;;;;;;;;;;;;;;;24.10;67.99;97011.05;110301;1241;69233;-75
2023/06/12 09:44:00;;;;;;;;;;;;;;;24.32;62.30;97010.54;110298;1243;69879;-75
2023/06/12 09:46:30;;;;;;;;;;;;;;;24.57;61.18;97003.97;110249;1243;59714;-73
2023/06/12 09:49:00;;;;;;;;;;;;;;;24.68;58.74;97001.06;110329;1242;59663;-75
2023/06/12 09:51:28;;;;;;;;;;;;;;;25.49;60.93;96998.12;110294;1241;71944;-74
2023/06/12 09:54:00;;;;;;;;;;;;;;;25.87;56.91;96999.23;110267;1242;69746;-74
2023/06/12 09:56:29;;;;;;;;;;;;;;;26.00;55.01;96999.17;110285;1245;68526;-74
2023/06/12 09:58:59;;;;;;;;;;;;;;;25.98;52.70;96998.04;110244;1244;59696;-74
2023/06/12 10:01:28;;;;;;;;;;;;;;;25.65;54.09;97000.73;110287;1241;59692;-72
2023/06/12 10:03:58;;;;;;;;;;;;;;;25.27;52.90;97001.22;110259;1243;71515;-73
2023/06/12 10:06:30;;;;;;;;;;;;;;;24.85;54.10;96997.77;110218;1241;69056;-73
2023/06/12 10:08:59;;;;;;;;;;;;;;;25.03;55.38;97001.03;110279;1242;69785;-73
2023/06/12 10:11:28;;;;;;;;;;;;;;;24.95;54.51;97004.10;110233;1242;59709;-74
2023/06/12 10:13:58;;;;;;;;;;;;;;;24.72;54.42;97003.48;110252;1243;59697;-74
2023/06/12 10:16:27;;;;;;;;;;;;;;;24.50;55.13;97003.79;110290;1242;71330;-73
2023/06/12 10:18:57;;;;;;;;;;;;;;;24.47;55.39;97006.23;110250;1242;69713;-74
2023/06/12 10:21:27;;;;;;;;;;;;;;;24.34;56.11;97012.15;110219;1242;69841;-73
2023/06/12 10:23:56;;;;;;;;;;;;;;;24.24;56.70;97008.57;110229;1241;59725;-72
2023/06/12 10:26:25;;;;;;;;;;;;;;;23.97;56.64;97009.26;110309;1242;59678;-74
2023/06/12 10:28:55;;;;;;;;;;;;;;;23.87;57.03;97005.80;110293;1243;71400;-73
2023/06/12 10:31:29;;;;;;;;;;;;;;;23.72;57.29;97003.55;110282;1243;68792;-73
2023/06/12 10:33:58;;;;;;;;;;;;;;;23.41;59.73;97002.23;110314;1242;68903;-74
2023/06/12 10:36:43;;;;;;;;;;;;;;;23.61;59.41;97006.96;110288;1244;59768;-73
2023/06/12 10:39:23;;;;;;;;;;;;;;;23.69;57.56;97005.31;110320;1240;59744;-75
2023/06/12 10:41:53;;;;;;;;;;;;;;;23.73;58.39;97001.90;110334;1241;72332;-73
2023/06/12 10:44:38;;;;;;;;;;;;;;;23.81;58.45;96997.84;110236;1242;69207;-75
2023/06/12 10:47:23;;;;;;;;;;;;;;;23.67;57.67;96999.02;110323;1240;69216;-73
2023/06/12 10:49:58;;;;;;;;;;;;;;;23.84;58.30;96995.74;110254;1243;59744;-72
2023/06/12 10:52:27;;;;;;;;;;;;;;;23.93;56.37;96993.33;110305;1242;59678;-74
2023/06/12 10:55:13;;;;;;;;;;;;;;;24.04;56.88;96990.20;110251;1241;71788;-75
2023/06/12 10:57:49;;;;;;;;;;;;;;;24.05;57.67;96989.25;110271;1242;69776;-72
2023/06/12 11:00:19;;;;;;;;;;;;;;;24.08;54.03;96987.61;110239;1242;68301;-73
2023/06/12 11:03:10;;;;;;;;;;;;;;;24.21;54.64;96986.20;110303;1242;59736;-73
2023/06/12 11:05:45;;;;;;;;;;;;;;;24.73;52.96;96979.50;110254;1242;59633;-74
2023/06/12 11:08:14;;;;;;;;;;;;;;;25.26;52.71;96979.73;110279;1243;70634;-74
2023/06/12 11:10:45;;;;;;;;;;;;;;;25.66;52.92;96980.64;110316;1249;69838;-73
2023/06/12 11:13:14;;;;;;;;;;;;;;;25.91;51.56;96982.08;110272;1242;68704;-72
2023/06/12 11:15:42;;;;;;;;;;;;;;;25.67;50.86;96977.25;110155;1241;59716;-73
2023/06/12 11:18:12;;;;;;;;;;;;;;;25.55;51.47;96974.15;110243;1242;59675;-73
2023/06/12 11:20:41;;;;;;;;;;;;;;;25.82;51.68;96974.85;110255;1241;71974;-73
2023/06/12 11:23:10;;;;;;;;;;;;;;;25.78;51.02;96970.48;110242;1241;69230;-72
2023/06/12 11:25:42;;;;;;;;;;;;;;;25.50;50.58;96968.92;110206;1242;69859;-72
2023/06/12 11:28:12;;;;;;;;;;;;;;;25.33;52.20;96972.79;110152;1243;59705;-72
2023/06/12 11:30:46;;;;;;;;;;;;;;;25.16;51.35;96971.08;110193;1241;59688;-73
2023/06/12 11:33:34;;;;;;;;;;;;;;;25.07;51.82;96973.20;110232;1242;71899;-72
2023/06/12 11:36:03;;;;;;;;;;;;;;;24.98;51.66;96968.96;110253;1242;68586;-73
2023/06/12 11:38:32;;;;;;;;;;;;;;;24.60;51.05;96968.79;110292;1242;69868;-73
2023/06/12 11:41:03;;;;;;;;;;;;;;;24.22;51.74;96976.83;110297;1242;59676;-73
2023/06/12 11:43:35;;;;;;;;;;;;;;;23.70;53.13;96974.38;110259;1244;59685;-73
2023/06/12 11:46:04;;;;;;;;;;;;;;;23.44;53.56;96966.84;110260;1242;72131;-73
2023/06/12 11:48:33;;;;;;;;;;;;;;;23.38;54.67;96966.34;110286;1242;69436;-71
2023/06/12 11:51:04;;;;;;;;;;;;;;;23.33;56.83;96972.92;110260;1244;69965;-72
2023/06/12 11:53:33;;;;;;;;;;;;;;;23.34;61.05;96972.64;110135;1243;59785;-72
2023/06/12 11:56:04;;;;;;;;;;;;;;;23.23;63.63;96972.91;110138;1242;59685;-72
2023/06/12 11:59:34;;;;;;;;;;;;;;;23.13;64.76;96969.33;110286;1242;70567;-71
2023/06/12 12:02:03;;;;;;;;;;;;;;;23.11;64.91;96967.44;110006;1244;69841;-72
2023/06/12 12:04:34;;;;;;;;;;;;;;;22.93;66.40;96962.44;110268;1241;68571;-71
2023/06/12 12:07:03;;;;;;;;;;;;;;;22.52;69.40;96963.20;110139;1242;60294;-73
2023/06/12 12:09:32;;;;;;;;;;;;;;;22.33;69.37;96962.41;110161;1240;59734;-71
2023/06/12 12:12:07;;;;;;;;;;;;;;;22.18;70.60;96959.58;110139;1240;71402;-72
2023/06/12 12:14:47;;;;;;;;;;;;;;;22.07;70.34;96961.36;110268;1242;68443;-71
2023/06/12 12:17:17;;;;;;;;;;;;;;;21.85;72.87;96965.70;110235;1243;69896;-72
2023/06/12 12:19:47;;;;;;;;;;;;;;;21.59;75.30;96963.77;110252;1242;59689;-73
2023/06/12 12:22:19;;;;;;;;;;;;;;;21.58;74.80;96957.88;110131;1241;59670;-71
2023/06/12 12:24:47;;;;;;;;;;;;;;;21.58;73.49;96960.21;110163;1241;72302;-71
2023/06/12 12:27:16;;;;;;;;;;;;;;;21.65;74.20;96956.17;110149;1241;69076;-70
2023/06/12 12:29:45;;;;;;;;;;;;;;;21.66;74.94;96953.77;110143;1243;69307;-73
2023/06/12 12:32:27;;;;;;;;;;;;;;;21.46;73.55;96952.83;110111;1241;59674;-72
2023/06/12 12:34:57;;;;;;;;;;;;;;;21.32;74.69;96953.30;110283;1244;59694;-71
2023/06/12 12:37:25;;;;;;;;;;;;;;;21.25;74.47;96952.59;110119;1242;71386;-73
2023/06/12 12:39:54;;;;;;;;;;;;;;;21.31;72.76;96955.41;110268;1241;67321;-73
2023/06/12 12:42:24;;;;;;;;;;;;;;;21.41;72.33;96958.05;110304;1242;69381;-74
2023/06/12 12:44:53;;;;;;;;;;;;;;;21.36;73.44;96957.06;110234;1242;59758;-71
2023/06/12 12:47:22;;;;;;;;;;;;;;;21.25;74.09;96959.11;110191;1242;59705;-73
2023/06/12 12:49:51;;;;;;;;;;;;;;;21.31;73.07;96958.44;110181;1242;71761;-73
2023/06/12 12:52:32;;;;;;;;;;;;;;;21.28;73.58;96960.67;110095;1244;69636;-72